»·PEaware :: WAT540 PACV-PAYA

WAT540 :: PACV-PAYA

FLIGHT INFORMATION

Flight Status: Arrived
Operator:
Walker Air Transport
More flights by this operator :: More flights under this callsign
Pilot: Michael R. (33632)
Aircraft: PIPER PA-30 TWIN COMANCHE
(PA30)
More flights by this aircraft type
Origin: PACV Cordova-Smith
United States
Destination: PAYA Yakutat
United States
More flights between these airports :: More routes between these airports
Route:
File this flight plan on PilotEdge
Remarks:
Altitude:
(Current/Filed)
7,500ft
Speed:
(Current/Filed)
160kts
Departed: 21-Feb-21 03:28 AM
Arrived: 21-Feb-21 04:44 AM
Distance/Time
Traveled:
184nm/1:16
Distance/Time
To Go:
Arrived

Flight Plot

Page will automatically refresh every two minutes.

Flight plan parsing failed; only flown route is shown


Map Options




Map Legend


Flown Route
Filed Route
Departure Airport
Arrival Airport
Navaid (VOR, NDB)
Fix

Horizontal Profiles

Position Reports

Time Latitude Longitude Heading Altitude Ground
Speed
21-Feb-21 02:47 60.496053 -145.478915 207 24ft 0kts
21-Feb-21 02:48 60.496053 -145.478915 207 24ft 0kts
21-Feb-21 02:49 60.496053 -145.478915 207 24ft 0kts
21-Feb-21 02:50 60.496053 -145.478915 207 24ft 0kts
21-Feb-21 02:51 60.496053 -145.478915 207 24ft 0kts
21-Feb-21 02:52 60.496053 -145.478915 207 24ft 0kts
21-Feb-21 02:53 60.496053 -145.478915 207 24ft 0kts
21-Feb-21 02:54 60.496053 -145.478915 207 24ft 0kts
21-Feb-21 02:55 60.496053 -145.478915 207 24ft 0kts
21-Feb-21 02:56 60.496053 -145.478915 207 24ft 0kts
21-Feb-21 02:57 60.496053 -145.478915 207 24ft 0kts
21-Feb-21 02:58 60.496053 -145.478915 207 24ft 0kts
21-Feb-21 02:59 60.496053 -145.478915 207 24ft 0kts
21-Feb-21 03:00 60.496053 -145.478915 207 24ft 0kts
21-Feb-21 03:01 60.496053 -145.478915 207 24ft 0kts
21-Feb-21 03:02 60.496053 -145.478915 207 24ft 0kts
21-Feb-21 03:03 60.496053 -145.478915 207 24ft 0kts
21-Feb-21 03:04 60.496053 -145.478915 207 24ft 0kts
21-Feb-21 03:05 60.496053 -145.478915 207 24ft 0kts
21-Feb-21 03:06 60.496053 -145.478915 207 24ft 0kts
21-Feb-21 03:07 60.496053 -145.478915 207 24ft 0kts
21-Feb-21 03:08 60.496053 -145.478915 207 24ft 0kts
21-Feb-21 03:09 60.496053 -145.478915 207 24ft 0kts
21-Feb-21 03:10 60.496053 -145.478915 207 24ft 0kts
21-Feb-21 03:11 60.496053 -145.478915 207 24ft 0kts
21-Feb-21 03:12 60.496053 -145.478915 207 24ft 0kts
21-Feb-21 03:13 60.496053 -145.478915 207 24ft 0kts
21-Feb-21 03:14 60.496053 -145.478915 207 24ft 0kts
21-Feb-21 03:15 60.496053 -145.478915 207 24ft 0kts
21-Feb-21 03:16 60.496053 -145.478915 207 24ft 0kts
21-Feb-21 03:17 60.496053 -145.478915 207 24ft 0kts
21-Feb-21 03:18 60.496053 -145.478915 207 24ft 0kts
21-Feb-21 03:19 60.496053 -145.478915 207 24ft 0kts
21-Feb-21 03:20 60.496053 -145.478915 207 24ft 0kts
21-Feb-21 03:21 60.496053 -145.478916 207 24ft 0kts
21-Feb-21 03:22 60.496053 -145.478916 207 24ft 0kts
21-Feb-21 03:23 60.495417 -145.479649 209 22ft 14kts
21-Feb-21 03:24 60.494038 -145.481011 205 22ft 0kts
21-Feb-21 03:25 60.493605 -145.481185 182 20ft 11kts
21-Feb-21 03:26 60.495710 -145.491639 294 17ft 23kts
21-Feb-21 03:27 60.493252 -145.481813 116 126ft 88kts
21-Feb-21 03:28 60.485219 -145.427023 99 1015ft 116kts
21-Feb-21 03:29 60.477920 -145.361195 104 1988ft 122kts
21-Feb-21 03:30 60.468884 -145.294884 106 2984ft 122kts
21-Feb-21 03:31 60.459460 -145.229244 106 3932ft 121kts
21-Feb-21 03:32 60.450003 -145.164388 106 4828ft 120kts
21-Feb-21 03:33 60.439962 -145.095861 106 5368ft 128kts
21-Feb-21 03:34 60.429733 -145.026501 106 5903ft 129kts
21-Feb-21 03:35 60.419431 -144.957015 106 6425ft 129kts
21-Feb-21 03:36 60.409103 -144.887654 106 6931ft 129kts
21-Feb-21 03:37 60.398780 -144.818578 106 7417ft 128kts
21-Feb-21 03:38 60.387643 -144.744355 106 7502ft 148kts
21-Feb-21 03:39 60.375301 -144.662531 106 7499ft 155kts
21-Feb-21 03:40 60.362587 -144.578634 106 7499ft 157kts
21-Feb-21 03:41 60.349698 -144.494067 106 7499ft 157kts
21-Feb-21 03:42 60.336796 -144.409827 106 7499ft 157kts
21-Feb-21 03:43 60.323799 -144.325384 107 7499ft 157kts
21-Feb-21 03:44 60.310787 -144.241255 107 7499ft 157kts
21-Feb-21 03:45 60.297666 -144.156832 107 7499ft 157kts
21-Feb-21 03:46 60.284507 -144.072577 107 7499ft 157kts
21-Feb-21 03:47 60.271331 -143.988623 107 7499ft 157kts
21-Feb-21 03:48 60.258076 -143.904568 107 7499ft 157kts
21-Feb-21 03:49 60.244793 -143.820742 107 7499ft 157kts
21-Feb-21 03:50 60.231406 -143.736663 107 7499ft 157kts
21-Feb-21 03:51 60.218015 -143.652955 107 7499ft 157kts
21-Feb-21 03:52 60.204583 -143.569389 107 7499ft 157kts
21-Feb-21 03:53 60.191050 -143.485595 107 7499ft 157kts
21-Feb-21 03:54 60.177473 -143.401921 107 7499ft 157kts
21-Feb-21 03:55 60.163861 -143.318431 108 7499ft 157kts
21-Feb-21 03:56 60.150163 -143.234804 108 7499ft 157kts
21-Feb-21 03:57 60.136431 -143.151364 108 7499ft 157kts
21-Feb-21 03:58 60.122680 -143.068195 108 7499ft 157kts
21-Feb-21 03:59 60.108837 -142.984853 108 7499ft 157kts
21-Feb-21 04:00 60.094959 -142.901681 108 7499ft 157kts
21-Feb-21 04:01 60.080981 -142.818291 108 7499ft 157kts
21-Feb-21 04:02 60.066986 -142.735190 108 7499ft 157kts
21-Feb-21 04:03 60.052917 -142.652016 108 7499ft 157kts
21-Feb-21 04:05 60.038840 -142.569185 108 7499ft 157kts
21-Feb-21 04:06 60.024674 -142.486203 108 7499ft 157kts
21-Feb-21 04:07 60.010457 -142.403300 108 7499ft 157kts
21-Feb-21 04:08 59.996178 -142.320412 109 7499ft 157kts
21-Feb-21 04:09 59.981927 -142.238058 109 7499ft 157kts
21-Feb-21 04:10 59.967499 -142.155053 109 7499ft 157kts
21-Feb-21 04:11 59.953090 -142.072520 109 7499ft 157kts
21-Feb-21 04:12 59.938587 -141.989824 109 7499ft 157kts
21-Feb-21 04:13 59.924031 -141.907184 109 7499ft 157kts
21-Feb-21 04:14 59.909463 -141.824845 109 7499ft 157kts
21-Feb-21 04:15 59.894845 -141.742583 109 7499ft 157kts
21-Feb-21 04:16 59.880156 -141.660292 109 7499ft 157kts
21-Feb-21 04:17 59.865461 -141.578324 109 7499ft 157kts
21-Feb-21 04:18 59.850647 -141.496045 109 7499ft 157kts
21-Feb-21 04:19 59.835808 -141.413983 109 7499ft 157kts
21-Feb-21 04:20 59.820872 -141.331763 110 7499ft 157kts
21-Feb-21 04:21 59.805943 -141.249890 110 7499ft 157kts
21-Feb-21 04:22 59.790949 -141.168035 110 7499ft 158kts
21-Feb-21 04:23 59.775876 -141.086112 110 7499ft 158kts
21-Feb-21 04:24 59.760777 -141.004390 110 7499ft 158kts
21-Feb-21 04:25 59.745611 -140.922655 110 7499ft 158kts
21-Feb-21 04:26 59.730403 -140.841040 110 7499ft 158kts
21-Feb-21 04:27 59.715151 -140.759536 110 7499ft 158kts
21-Feb-21 04:28 59.699147 -140.677938 117 7305ft 168kts
21-Feb-21 04:29 59.674085 -140.596761 125 6855ft 174kts
21-Feb-21 04:30 59.644675 -140.521040 127 6439ft 174kts
21-Feb-21 04:31 59.613794 -140.446876 130 6046ft 175kts
21-Feb-21 04:32 59.581810 -140.374796 130 5663ft 175kts
21-Feb-21 04:32 59.555125 -140.314744 131 5348ft 174kts
21-Feb-21 04:33 59.523038 -140.242634 131 4978ft 175kts
21-Feb-21 04:35 59.485603 -140.158648 131 4559ft 175kts
21-Feb-21 04:36 59.453587 -140.086938 131 4209ft 175kts
21-Feb-21 04:37 59.435829 -140.001080 99 3848ft 175kts
21-Feb-21 04:37 59.429536 -139.922408 98 3570ft 175kts
21-Feb-21 04:38 59.426314 -139.834601 72 2522ft 143kts
21-Feb-21 04:39 59.446196 -139.782698 42 1501ft 103kts
21-Feb-21 04:40 59.464510 -139.747275 45 1135ft 86kts
21-Feb-21 04:41 59.481021 -139.714715 44 596ft 81kts
21-Feb-21 04:42 59.497199 -139.683000 44 30ft 76kts
21-Feb-21 04:43 59.505408 -139.667370 351 22ft 15kts
21-Feb-21 04:44 59.507310 -139.667227 41 24ft 12kts
21-Feb-21 04:45 59.507855 -139.667472 85 25ft 0kts
21-Feb-21 04:46 59.507855 -139.667474 85 25ft 0kts

Navigation Log

Ident Type
Flight plan parsing failed, navigation log unavailable